Time;durP1;ratioP1;P1;durP2;ratioP2;P2;SDS_P1;SDS_P2;PMS_P1;PMS_P2;Temp;Humidity;BMP_temperature;BMP_pressure;BME280_temperature;BME280_humidity;BME280_pressure;Samples;Min_cycle;Max_cycle;Signal;HPM_P1;HPM_P2
2022/02/05 00:02:11;;;;;;;9.80;0.40;;;4.10;99.90;;;;;;6153366;23;20443;-85
2022/02/05 00:04:37;;;;;;;4.65;0.57;;;4.10;99.90;;;;;;6128454;23;20284;-83
2022/02/05 00:07:05;;;;;;;5.78;0.70;;;4.20;99.90;;;;;;6153632;23;20021;-85
2022/02/05 00:43:51;;;;;;;4.85;0.40;;;3.60;99.90;;;;;;6154019;23;20419;-83
2022/02/05 00:46:17;;;;;;;4.88;0.90;;;3.60;99.90;;;;;;6128195;23;20006;-83
2022/02/05 00:48:42;;;;;;;5.82;0.40;;;3.60;99.90;;;;;;6152339;23;20032;-83
2022/02/05 00:51:19;;;;;;;4.72;1.00;;;3.60;99.90;;;;;;6152401;23;20006;-84
2022/02/05 00:53:49;;;;;;;5.43;0.50;;;3.60;99.90;;;;;;6127176;23;20016;-84
2022/02/05 00:56:26;;;;;;;4.13;0.50;;;3.70;99.90;;;;;;6152749;23;20439;-84
2022/02/05 00:58:52;;;;;;;4.25;0.40;;;3.60;99.90;;;;;;6127298;23;20006;-83
2022/02/05 01:01:17;;;;;;;3.95;0.40;;;3.60;99.90;;;;;;6152779;23;20027;-82
2022/02/05 01:03:43;;;;;;;7.25;0.40;;;3.70;99.90;;;;;;6152437;23;20017;-84
2022/02/05 01:06:09;;;;;;;6.47;0.40;;;3.80;99.90;;;;;;6151928;23;20085;-86
2022/02/05 01:08:36;;;;;;;4.32;0.45;;;3.70;99.90;;;;;;6153588;23;20001;-82
2022/02/05 01:11:02;;;;;;;4.65;0.40;;;3.70;99.90;;;;;;6154212;23;20232;-86
2022/02/05 01:13:30;;;;;;;6.30;0.35;;;3.70;99.90;;;;;;6151983;23;20009;-83
2022/02/05 01:16:07;;;;;;;4.07;0.30;;;3.70;99.90;;;;;;6152449;23;20005;-83
2022/02/05 01:18:35;;;;;;;4.80;0.40;;;3.60;99.90;;;;;;6152007;23;20002;-83
2022/02/05 01:23:48;;;;;;;5.93;0.40;;;3.80;99.90;;;;;;6153747;23;20009;-83
2022/02/05 01:26:20;;;;;;;6.15;0.50;;;3.70;99.90;;;;;;6127490;23;20088;-85
2022/02/05 01:28:52;;;;;;;5.78;0.40;;;3.70;99.90;;;;;;6152123;23;20332;-83
2022/02/05 01:31:18;;;;;;;4.85;0.40;;;3.80;99.90;;;;;;6128403;23;20438;-83
2022/02/05 01:33:59;;;;;;;7.05;0.30;;;3.70;99.90;;;;;;6151557;23;20052;-84
2022/02/05 01:53:04;;;;;;;4.68;0.40;;;3.90;99.90;;;;;;6151632;23;20431;-83
2022/02/05 02:06:15;;;;;;;2.53;0.30;;;3.80;99.90;;;;;;6151370;23;20055;-83
2022/02/05 02:12:05;;;;;;;5.38;0.30;;;3.80;99.90;;;;;;6151726;23;20430;-82
2022/02/05 02:14:45;;;;;;;2.08;0.40;;;3.70;99.90;;;;;;6151012;23;20009;-81
2022/02/05 02:22:55;;;;;;;0.82;0.17;;;3.70;99.90;;;;;;6066905;23;20360;-81
2022/02/05 02:28:08;;;;;;;5.32;0.20;;;3.40;99.90;;;;;;6067677;23;20006;-81
2022/02/05 02:30:39;;;;;;;4.13;0.10;;;3.60;99.90;;;;;;6091300;23;20012;-80
2022/02/05 02:33:17;;;;;;;4.00;0.10;;;3.40;99.90;;;;;;6091141;23;20010;-81
2022/02/05 02:35:47;;;;;;;3.40;0.20;;;3.40;99.90;;;;;;6066809;23;20010;-79
2022/02/05 02:38:16;;;;;;;1.27;0.10;;;3.40;99.90;;;;;;6067099;23;20391;-81
2022/02/05 02:43:26;;;;;;;0.82;0.10;;;3.30;99.90;;;;;;6067355;23;20015;-81
2022/02/05 02:45:52;;;;;;;0.75;0.10;;;3.40;99.90;;;;;;6090849;23;20022;-80
2022/02/05 02:48:18;;;;;;;2.60;0.10;;;3.40;99.90;;;;;;6066117;23;20018;-81
2022/02/05 02:59:19;;;;;;;2.10;0.20;;;3.40;99.90;;;;;;6153047;23;20323;-81
2022/02/05 03:01:46;;;;;;;2.90;0.20;;;3.30;99.90;;;;;;6152319;23;20350;-81
2022/02/05 03:04:11;;;;;;;3.72;0.20;;;3.30;99.90;;;;;;6102023;23;20728;-80
2022/02/05 03:06:37;;;;;;;2.88;0.10;;;3.40;99.90;;;;;;6126464;23;20021;-82
2022/02/05 03:09:03;;;;;;;1.98;0.17;;;3.40;99.90;;;;;;6102362;23;20025;-81
2022/02/05 03:11:29;;;;;;;0.80;0.10;;;3.40;99.90;;;;;;6126382;23;20419;-80
2022/02/05 03:13:54;;;;;;;1.83;0.10;;;3.40;99.90;;;;;;6102871;23;20010;-82
2022/02/05 03:16:23;;;;;;;6.03;0.20;;;3.50;99.90;;;;;;6126776;23;20005;-81
2022/02/05 03:19:09;;;;;;;2.35;0.20;;;3.50;99.90;;;;;;6125887;23;20377;-81
2022/02/05 03:21:35;;;;;;;2.65;0.20;;;3.50;99.90;;;;;;6101687;23;20500;-82
2022/02/05 03:24:02;;;;;;;2.00;0.13;;;3.50;99.90;;;;;;6102093;23;20001;-82
2022/02/05 03:26:28;;;;;;;2.22;0.17;;;3.50;99.90;;;;;;6102569;23;20009;-81
2022/02/05 03:28:53;;;;;;;3.60;0.10;;;3.50;99.90;;;;;;6102358;23;20006;-80
2022/02/05 03:31:19;;;;;;;2.50;0.10;;;3.50;99.90;;;;;;6102833;23;20032;-86
2022/02/05 03:33:44;;;;;;;1.55;0.20;;;3.50;99.90;;;;;;6104119;23;20006;-82
2022/02/05 03:36:10;;;;;;;1.10;0.20;;;3.50;99.90;;;;;;6103908;23;20005;-81
2022/02/05 03:38:36;;;;;;;3.03;0.20;;;3.50;99.90;;;;;;6103440;23;20013;-82
2022/02/05 03:41:01;;;;;;;1.35;0.13;;;3.50;99.90;;;;;;6104117;23;20049;-83
2022/02/05 03:43:27;;;;;;;2.00;0.40;;;3.50;99.90;;;;;;6104501;23;20009;-81
2022/02/05 03:45:52;;;;;;;1.20;0.30;;;3.50;99.90;;;;;;6128326;23;20005;-81
2022/02/05 03:48:18;;;;;;;3.28;0.45;;;3.50;99.90;;;;;;6128015;23;20064;-82
2022/02/05 03:50:44;;;;;;;5.47;0.30;;;3.50;99.90;;;;;;6128019;23;20013;-82
2022/02/05 03:53:09;;;;;;;3.67;0.30;;;3.60;99.90;;;;;;6106182;23;20304;-82
2022/02/05 03:55:35;;;;;;;6.20;0.38;;;3.60;99.90;;;;;;6128485;23;20457;-83
2022/02/05 03:58:01;;;;;;;4.43;0.20;;;3.70;99.90;;;;;;6128793;23;20180;-83
2022/02/05 04:00:27;;;;;;;7.07;0.40;;;3.70;99.90;;;;;;6128055;23;20025;-82
2022/02/05 04:02:53;;;;;;;5.63;0.40;;;3.80;99.90;;;;;;6128994;23;20001;-84
2022/02/05 04:05:18;;;;;;;4.47;0.30;;;3.80;99.90;;;;;;6129322;23;20022;-84
2022/02/05 04:07:48;;;;;;;5.10;0.30;;;3.80;99.90;;;;;;6127807;23;20006;-85
2022/02/05 04:10:20;;;;;;;2.10;0.10;;;3.70;99.90;;;;;;6128633;23;20014;-83
2022/02/05 04:18:14;;;;;;;1.52;0.20;;;3.50;99.90;;;;;;6152597;23;20009;-83
2022/02/05 04:20:40;;;;;;;1.67;0.25;;;3.50;99.90;;;;;;6128114;23;20080;-85
2022/02/05 04:23:05;;;;;;;2.53;0.25;;;3.50;99.90;;;;;;6128470;23;20068;-85
2022/02/05 04:25:31;;;;;;;2.42;0.22;;;3.50;99.90;;;;;;6127992;23;20386;-86
2022/02/05 04:27:57;;;;;;;3.67;0.40;;;3.50;99.90;;;;;;6127859;23;20387;-83
2022/02/05 04:30:23;;;;;;;3.72;0.20;;;3.50;99.90;;;;;;6152929;23;19997;-83
2022/02/05 04:32:49;;;;;;;6.63;0.32;;;3.60;99.90;;;;;;6128126;23;20108;-86
2022/02/05 04:35:15;;;;;;;4.82;0.30;;;3.60;99.90;;;;;;6152894;23;20005;-84
2022/02/05 04:37:42;;;;;;;2.92;0.25;;;3.60;99.90;;;;;;6128178;23;20009;-82
2022/02/05 04:45:52;;;;;;;5.35;0.40;;;3.50;99.90;;;;;;6152155;23;20013;-83
2022/02/05 04:51:17;;;;;;;4.68;0.30;;;3.50;99.90;;;;;;6153273;23;20060;-82
2022/02/05 04:54:01;;;;;;;4.72;0.35;;;3.40;99.90;;;;;;6127393;23;20443;-82
2022/02/05 05:09:37;;;;;;;4.40;0.30;;;3.30;99.90;;;;;;6152431;23;20028;-83
2022/02/05 05:20:16;;;;;;;3.95;0.20;;;3.30;99.90;;;;;;6154034;23;20017;-84
2022/02/05 05:22:41;;;;;;;6.78;0.63;;;3.40;99.90;;;;;;6127660;23;20446;-84
2022/02/05 05:25:07;;;;;;;4.05;0.28;;;3.50;99.90;;;;;;6153951;23;20052;-84
2022/02/05 05:27:33;;;;;;;4.88;0.30;;;3.50;99.90;;;;;;6151902;23;20159;-82
2022/02/05 05:29:59;;;;;;;1.08;0.30;;;3.50;99.90;;;;;;6152968;23;20423;-83
2022/02/05 05:32:26;;;;;;;6.85;0.40;;;3.50;99.90;;;;;;6128035;23;20076;-83
2022/02/05 05:34:52;;;;;;;4.38;0.30;;;3.50;99.90;;;;;;6152023;23;20224;-83
2022/02/05 05:37:19;;;;;;;1.90;0.20;;;3.50;99.90;;;;;;6152283;23;20010;-84
2022/02/05 05:39:47;;;;;;;2.95;0.20;;;3.50;99.90;;;;;;6152154;23;20307;-83
2022/02/05 05:42:18;;;;;;;3.17;0.55;;;3.50;99.90;;;;;;6127448;23;20009;-84
2022/02/05 05:52:22;;;;;;;1.73;0.20;;;3.50;99.90;;;;;;6152232;23;20013;-82
2022/02/05 05:54:49;;;;;;;3.00;0.30;;;3.60;99.90;;;;;;6126503;23;20064;-83
2022/02/05 05:57:15;;;;;;;3.25;0.30;;;3.50;99.90;;;;;;6127333;23;20010;-83
2022/02/05 05:59:41;;;;;;;5.97;0.30;;;3.50;99.90;;;;;;6127121;23;20017;-84
2022/02/05 06:02:07;;;;;;;3.00;0.28;;;3.40;99.90;;;;;;6152458;23;20148;-85
2022/02/05 06:04:33;;;;;;;3.08;0.30;;;3.30;99.90;;;;;;6127130;23;20013;-83
2022/02/05 06:06:59;;;;;;;3.55;0.30;;;3.20;99.90;;;;;;6127481;23;20019;-83
2022/02/05 06:09:24;;;;;;;2.25;0.30;;;3.20;99.90;;;;;;6151735;23;20001;-84
2022/02/05 06:11:50;;;;;;;5.15;0.60;;;3.10;99.90;;;;;;6152425;23;20355;-85
2022/02/05 06:14:21;;;;;;;3.58;0.60;;;3.20;99.90;;;;;;6128202;23;20144;-85
2022/02/05 06:16:51;;;;;;;3.00;0.50;;;3.20;99.90;;;;;;6153828;23;19997;-84
2022/02/05 06:19:17;;;;;;;5.22;0.50;;;3.30;99.90;;;;;;6152968;23;20009;-86
2022/02/05 06:21:44;;;;;;;3.92;0.43;;;3.20;99.90;;;;;;6127643;23;20021;-85
2022/02/05 06:24:09;;;;;;;6.63;0.60;;;3.20;99.90;;;;;;6151835;23;20358;-86
2022/02/05 06:26:35;;;;;;;3.40;0.60;;;3.30;99.90;;;;;;6126922;23;20044;-84
2022/02/05 06:29:00;;;;;;;7.95;1.35;;;3.40;99.90;;;;;;6127775;23;20096;-85
2022/02/05 06:31:26;;;;;;;3.55;0.57;;;3.50;99.90;;;;;;6128155;23;20369;-85
2022/02/05 06:33:52;;;;;;;6.70;0.88;;;3.50;99.90;;;;;;6152529;23;20020;-84
2022/02/05 06:36:17;;;;;;;4.25;0.90;;;3.50;99.90;;;;;;6152126;23;20040;-84
2022/02/05 06:38:43;;;;;;;3.65;0.70;;;3.50;99.90;;;;;;6151766;23;20013;-86
2022/02/05 06:41:09;;;;;;;6.93;0.63;;;3.40;99.90;;;;;;6126670;23;20505;-85
2022/02/05 06:43:34;;;;;;;3.80;0.70;;;3.30;99.90;;;;;;6126817;23;20035;-84
2022/02/05 06:46:00;;;;;;;2.97;0.60;;;3.30;99.90;;;;;;6152533;23;20024;-85
2022/02/05 06:48:25;;;;;;;3.95;0.40;;;3.30;99.90;;;;;;6127902;23;20423;-84
2022/02/05 06:50:51;;;;;;;5.15;0.93;;;3.30;99.90;;;;;;6127541;23;20016;-84
2022/02/05 06:53:17;;;;;;;10.23;1.60;;;3.30;99.90;;;;;;6127919;23;20022;-85
2022/02/05 06:55:42;;;;;;;8.70;1.60;;;3.40;99.90;;;;;;6152537;23;20014;-84
2022/02/05 06:58:08;;;;;;;6.70;1.20;;;3.40;99.90;;;;;;6127343;23;20005;-87
2022/02/05 07:00:34;;;;;;;9.45;1.10;;;3.40;99.90;;;;;;6127484;23;20398;-85
2022/02/05 07:02:59;;;;;;;5.47;0.93;;;3.30;99.90;;;;;;6152349;23;20009;-85
2022/02/05 07:05:25;;;;;;;4.65;1.55;;;3.30;99.90;;;;;;6153642;23;20490;-84
2022/02/05 07:07:50;;;;;;;6.68;1.75;;;3.20;99.90;;;;;;6153843;23;20002;-85
2022/02/05 07:10:16;;;;;;;10.55;1.85;;;3.20;99.90;;;;;;6128659;23;20080;-85
2022/02/05 07:13:12;;;;;;;8.20;1.88;;;3.20;99.90;;;;;;6129134;23;20068;-85
2022/02/05 07:15:32;;;;;;;10.25;1.67;;;3.20;99.90;;;;;;6153557;23;20009;-85
2022/02/05 07:18:27;;;;;;;6.00;1.63;;;3.20;99.90;;;;;;6154052;23;20002;-85
2022/02/05 07:20:50;;;;;;;9.30;2.58;;;3.20;99.90;;;;;;6150879;23;20112;-86
2022/02/05 07:23:42;;;;;;;7.30;2.38;;;3.20;99.90;;;;;;6128403;23;20013;-86
2022/02/05 07:31:37;;;;;;;10.60;1.75;;;3.30;99.90;;;;;;6154706;23;20021;-84
2022/02/05 07:34:03;;;;;;;6.28;1.30;;;3.30;99.90;;;;;;6129069;23;20017;-85
2022/02/05 07:36:28;;;;;;;9.35;1.77;;;3.30;99.90;;;;;;6128876;23;20059;-86
2022/02/05 07:38:54;;;;;;;8.52;1.50;;;3.30;99.90;;;;;;6153084;23;20411;-86
2022/02/05 07:41:20;;;;;;;7.38;1.58;;;3.30;99.90;;;;;;6128753;23;20053;-87
2022/02/05 07:43:46;;;;;;;7.80;1.10;;;3.30;99.90;;;;;;6104489;23;20439;-85
2022/02/05 07:46:13;;;;;;;6.90;1.48;;;3.20;99.90;;;;;;6128983;23;20005;-85
2022/02/05 07:48:39;;;;;;;6.93;1.00;;;3.20;99.90;;;;;;6128551;23;20002;-85
2022/02/05 07:51:06;;;;;;;7.22;1.42;;;3.20;99.90;;;;;;6128779;23;20351;-85
2022/02/05 07:53:32;;;;;;;12.25;2.63;;;3.30;99.90;;;;;;6128162;23;20021;-87
2022/02/05 07:55:58;;;;;;;6.50;2.05;;;3.40;99.90;;;;;;6128636;23;20052;-85
2022/02/05 07:58:25;;;;;;;7.43;1.35;;;3.40;99.90;;;;;;6128465;23;20473;-85
2022/02/05 08:00:52;;;;;;;12.85;2.10;;;3.40;99.90;;;;;;6128462;23;20017;-86
2022/02/05 08:03:18;;;;;;;7.93;1.17;;;3.40;99.90;;;;;;6128799;23;20018;-86
2022/02/05 08:05:44;;;;;;;10.82;1.40;;;3.40;99.90;;;;;;6154783;23;20015;-85
2022/02/05 08:08:13;;;;;;;6.97;2.17;;;3.40;99.90;;;;;;6128025;23;20037;-84
2022/02/05 08:10:49;;;;;;;5.80;1.88;;;3.40;99.90;;;;;;6128218;23;20009;-85
2022/02/05 08:13:14;;;;;;;8.63;0.98;;;3.40;99.90;;;;;;6128614;23;20320;-87
2022/02/05 08:15:40;;;;;;;7.53;0.90;;;3.40;99.90;;;;;;6152584;23;20020;-85
2022/02/05 08:18:06;;;;;;;6.55;0.80;;;3.40;99.90;;;;;;6128089;23;20494;-86
2022/02/05 08:20:32;;;;;;;4.18;0.90;;;3.40;99.90;;;;;;6152497;23;20042;-85
2022/02/05 08:22:58;;;;;;;4.45;0.70;;;3.40;99.90;;;;;;6152836;23;20053;-85
2022/02/05 08:25:24;;;;;;;5.60;0.90;;;3.40;99.90;;;;;;6154969;23;20014;-86
2022/02/05 08:27:50;;;;;;;8.43;1.77;;;3.50;99.90;;;;;;6152464;23;20009;-86
2022/02/05 08:30:16;;;;;;;5.70;0.90;;;3.60;99.90;;;;;;6153003;23;20012;-86
2022/02/05 08:32:44;;;;;;;5.78;1.02;;;3.60;99.90;;;;;;6152961;23;20009;-86
2022/02/05 08:35:10;;;;;;;2.85;0.63;;;3.60;99.90;;;;;;6153077;23;20012;-86
2022/02/05 08:37:44;;;;;;;4.75;0.60;;;3.70;99.90;;;;;;6152072;23;20006;-84
2022/02/05 08:40:10;;;;;;;5.65;0.80;;;3.70;99.90;;;;;;6127899;23;20033;-85
2022/02/05 08:42:36;;;;;;;3.25;0.70;;;3.70;99.90;;;;;;6152447;23;20089;-85
2022/02/05 08:45:02;;;;;;;6.90;1.00;;;3.80;99.90;;;;;;6128116;23;20008;-85
2022/02/05 08:47:29;;;;;;;6.65;1.23;;;3.80;99.90;;;;;;6152044;23;20016;-84
2022/02/05 08:49:56;;;;;;;11.55;2.17;;;3.90;99.90;;;;;;6152395;23;20005;-86
2022/02/05 08:52:22;;;;;;;9.77;1.30;;;4.00;99.90;;;;;;6128339;23;20010;-86
2022/02/05 08:54:48;;;;;;;5.43;1.30;;;4.10;99.90;;;;;;6152127;23;20103;-84
2022/02/05 08:57:14;;;;;;;7.80;1.70;;;4.10;99.90;;;;;;6127481;23;20013;-85
2022/02/05 09:02:29;;;;;;;5.32;0.70;;;4.20;99.90;;;;;;6129871;23;20045;-84
2022/02/05 09:07:23;;;;;;;4.85;0.80;;;4.30;99.90;;;;;;6152567;23;20013;-83
2022/02/05 09:10:04;;;;;;;7.68;1.33;;;4.40;99.90;;;;;;6151813;23;20132;-84
2022/02/05 09:14:55;;;;;;;6.00;0.70;;;4.70;99.90;;;;;;6152429;23;20009;-84
2022/02/05 09:17:21;;;;;;;11.48;1.40;;;4.90;99.90;;;;;;6127575;23;20013;-84
2022/02/05 09:19:47;;;;;;;6.30;1.17;;;4.90;99.90;;;;;;6126861;23;20182;-84
2022/02/05 09:22:13;;;;;;;6.60;1.33;;;5.10;99.90;;;;;;6151960;23;20450;-85
2022/02/05 09:24:39;;;;;;;11.88;2.40;;;5.10;99.90;;;;;;6152360;23;20060;-85
2022/02/05 09:27:08;;;;;;;7.65;1.63;;;5.00;99.90;;;;;;6151971;23;20001;-83
2022/02/05 09:29:42;;;;;;;10.20;2.60;;;5.00;99.90;;;;;;6151376;23;20198;-84
2022/02/05 09:32:08;;;;;;;9.18;1.65;;;4.90;99.90;;;;;;6127813;23;20041;-84
2022/02/05 09:34:33;;;;;;;5.82;1.40;;;5.00;99.90;;;;;;6151775;23;20010;-84
2022/02/05 09:36:59;;;;;;;11.77;2.33;;;5.00;99.90;;;;;;6152099;23;20009;-85
2022/02/05 09:39:25;;;;;;;9.18;1.48;;;5.00;99.90;;;;;;6127435;23;20426;-83
2022/02/05 09:41:51;;;;;;;9.57;1.75;;;5.10;99.90;;;;;;6127035;23;20020;-84
2022/02/05 09:44:17;;;;;;;10.98;2.10;;;5.20;99.90;;;;;;6127556;23;20010;-85
2022/02/05 09:46:43;;;;;;;12.82;2.22;;;5.10;99.90;;;;;;6126877;23;20013;-84
2022/02/05 09:49:09;;;;;;;8.80;1.95;;;5.20;99.90;;;;;;6126213;23;20496;-84
2022/02/05 09:51:40;;;;;;;7.57;1.05;;;5.40;99.90;;;;;;6127042;23;20084;-85
2022/02/05 09:54:07;;;;;;;7.32;1.52;;;5.50;99.90;;;;;;6126845;23;20314;-84
2022/02/05 09:56:35;;;;;;;7.47;1.08;;;5.60;99.90;;;;;;6126416;23;20335;-82
2022/02/05 09:59:02;;;;;;;12.40;1.67;;;5.60;99.90;;;;;;6151471;23;20010;-84
2022/02/05 10:01:31;;;;;;;7.40;2.17;;;5.50;99.90;;;;;;6102792;23;20025;-82
2022/02/05 10:03:57;;;;;;;10.85;1.00;;;5.50;99.90;;;;;;6126620;23;20005;-85
2022/02/05 10:06:38;;;;;;;7.95;1.67;;;5.50;99.90;;;;;;6152145;23;20052;-84
2022/02/05 10:09:06;;;;;;;8.25;1.95;;;5.60;99.90;;;;;;6126842;23;20009;-85
2022/02/05 10:11:49;;;;;;;10.73;1.25;;;5.50;99.90;;;;;;6151541;23;20014;-84
2022/02/05 10:14:26;;;;;;;9.80;1.27;;;5.60;99.90;;;;;;6126688;23;20009;-85
2022/02/05 10:16:55;;;;;;;10.10;1.45;;;5.70;99.90;;;;;;6127267;23;20021;-85
2022/02/05 10:19:23;;;;;;;9.10;1.13;;;5.80;99.90;;;;;;6127370;23;20024;-82
2022/02/05 10:22:08;;;;;;;15.10;1.58;;;5.90;99.90;;;;;;6126772;23;20076;-85
2022/02/05 10:24:34;;;;;;;10.50;1.58;;;5.80;99.90;;;;;;6151847;23;20020;-86
2022/02/05 10:27:00;;;;;;;9.25;1.10;;;5.90;99.90;;;;;;6151580;23;20093;-86
2022/02/05 10:29:26;;;;;;;6.50;1.20;;;6.00;99.90;;;;;;6151625;23;20032;-85
2022/02/05 10:32:00;;;;;;;6.80;0.82;;;6.00;99.90;;;;;;6151262;23;20006;-82
2022/02/05 10:34:28;;;;;;;8.48;1.13;;;6.10;99.90;;;;;;6126986;23;20014;-79
2022/02/05 10:37:07;;;;;;;8.00;1.10;;;6.10;99.90;;;;;;6151827;23;20016;-87
2022/02/05 10:39:51;;;;;;;12.50;0.98;;;6.20;99.90;;;;;;6126964;23;20472;-86
2022/02/05 10:45:07;;;;;;;15.23;5.68;;;6.50;99.90;;;;;;6151181;23;20335;-87
2022/02/05 10:47:50;;;;;;;10.20;1.08;;;6.40;99.90;;;;;;6151047;23;20017;-86
2022/02/05 10:50:18;;;;;;;4.68;0.63;;;6.40;99.90;;;;;;6127154;23;20065;-85
2022/02/05 10:52:57;;;;;;;8.40;1.10;;;6.70;99.90;;;;;;6126799;23;20008;-86
2022/02/05 10:56:26;;;;;;;8.52;1.02;;;6.70;99.90;;;;;;6127640;23;20024;-85
2022/02/05 11:07:06;;;;;;;5.40;0.60;;;6.60;99.90;;;;;;6151393;23;20092;-85
2022/02/05 11:09:32;;;;;;;7.65;0.70;;;7.00;99.90;;;;;;6126779;23;20013;-85
2022/02/05 11:20:12;;;;;;;10.60;0.60;;;7.10;99.90;;;;;;6151133;23;20395;-86
2022/02/05 11:22:48;;;;;;;7.22;1.17;;;6.90;99.90;;;;;;6149362;23;20033;-86
2022/02/05 11:25:15;;;;;;;8.57;0.70;;;6.80;99.90;;;;;;6126997;23;20072;-87
2022/02/05 11:27:47;;;;;;;8.55;0.60;;;6.60;99.90;;;;;;6126115;23;20017;-87
2022/02/05 11:30:34;;;;;;;9.50;0.70;;;6.50;99.90;;;;;;6126329;23;20018;-87
2022/02/05 11:33:06;;;;;;;8.63;0.90;;;6.40;99.90;;;;;;6126834;23;20412;-83
2022/02/05 11:35:58;;;;;;;9.30;1.70;;;6.40;99.90;;;;;;6126774;23;20009;-87
2022/02/05 11:38:29;;;;;;;9.52;0.60;;;6.40;99.90;;;;;;6127299;23;20013;-86
2022/02/05 11:40:55;;;;;;;7.03;0.70;;;6.50;99.90;;;;;;6151396;23;20022;-85
2022/02/05 11:43:29;;;;;;;11.20;0.70;;;6.60;99.90;;;;;;6151447;23;20063;-85
2022/02/05 11:46:07;;;;;;;8.07;0.70;;;6.80;99.90;;;;;;6126258;23;20006;-87
2022/02/05 11:48:36;;;;;;;5.70;0.50;;;7.20;99.90;;;;;;6151565;23;20453;-88
2022/02/05 11:51:47;;;;;;;7.20;0.50;;;6.80;99.90;;;;;;6126829;23;20104;-88
2022/02/05 11:54:17;;;;;;;5.60;0.50;;;6.70;99.90;;;;;;6148067;23;20041;-87
2022/02/05 11:57:07;;;;;;;6.25;0.68;;;6.90;99.90;;;;;;6104467;23;20021;-86
2022/02/05 12:00:02;;;;;;;8.65;0.60;;;6.60;99.90;;;;;;6153284;23;20031;-90
2022/02/05 12:02:38;;;;;;;7.60;0.50;;;6.60;99.90;;;;;;6128378;23;20021;-88
2022/02/05 12:05:15;;;;;;;9.55;0.63;;;6.60;99.90;;;;;;6153281;23;20081;-85
2022/02/05 12:08:01;;;;;;;8.73;1.10;;;6.60;99.90;;;;;;6126050;23;20010;-86
2022/02/05 12:10:38;;;;;;;5.50;0.60;;;6.70;99.90;;;;;;6151171;23;20096;-89
2022/02/05 12:13:25;;;;;;;6.88;0.50;;;6.80;99.90;;;;;;6126081;23;20318;-86
2022/02/05 12:15:57;;;;;;;6.35;0.50;;;6.80;99.90;;;;;;6126255;23;20010;-89
2022/02/05 12:18:26;;;;;;;7.50;1.08;;;7.10;99.90;;;;;;6126500;23;20298;-86
2022/02/05 12:26:20;;;;;;;5.88;0.50;;;7.40;99.90;;;;;;6068805;23;20093;-84
2022/02/05 12:28:50;;;;;;;5.60;0.40;;;7.40;99.90;;;;;;6067915;23;20342;-87
2022/02/05 12:31:25;;;;;;;4.03;0.52;;;7.40;99.90;;;;;;6067871;23;20010;-88
2022/02/05 12:34:14;;;;;;;5.43;0.88;;;7.40;99.90;;;;;;6043949;23;20007;-88
2022/02/05 12:36:53;;;;;;;5.05;0.60;;;7.20;99.90;;;;;;6066329;23;20006;-85
2022/02/05 12:39:31;;;;;;;6.38;0.60;;;7.40;99.90;;;;;;6045090;23;20081;-86
2022/02/05 12:42:06;;;;;;;6.57;0.50;;;7.50;99.90;;;;;;6059610;23;20025;-87
2022/02/05 12:44:35;;;;;;;4.38;0.40;;;7.60;99.90;;;;;;6092846;23;20022;-87
2022/02/05 12:47:07;;;;;;;7.60;0.40;;;7.90;99.90;;;;;;6068860;23;20391;-89
2022/02/05 12:49:42;;;;;;;3.20;0.40;;;8.00;99.90;;;;;;6068456;23;20105;-87
2022/02/05 12:52:08;;;;;;;6.57;0.50;;;8.20;99.90;;;;;;6067554;23;20085;-87
2022/02/05 12:54:35;;;;;;;8.60;0.50;;;8.10;99.90;;;;;;6091595;23;20029;-86
2022/02/05 12:57:03;;;;;;;7.10;0.60;;;7.80;99.90;;;;;;6044360;23;20038;-86
2022/02/05 12:59:32;;;;;;;3.03;0.45;;;7.90;99.90;;;;;;6095848;23;20101;-88
2022/02/05 13:01:59;;;;;;;5.05;0.85;;;7.90;99.90;;;;;;6152884;23;20023;-87
2022/02/05 13:04:47;;;;;;;2.45;0.43;;;7.40;99.90;;;;;;6127949;23;20029;-86
2022/02/05 13:07:18;;;;;;;10.50;1.02;;;7.30;99.90;;;;;;6127475;23;20010;-86
2022/02/05 13:09:54;;;;;;;6.97;0.47;;;7.40;99.90;;;;;;6152740;23;20024;-86
2022/02/05 13:12:25;;;;;;;3.80;0.40;;;7.70;99.90;;;;;;6127725;23;20009;-86
2022/02/05 13:15:00;;;;;;;4.55;0.40;;;7.80;99.90;;;;;;6153015;23;20076;-86
2022/02/05 13:41:36;;;;;;;7.63;0.50;;;7.60;99.90;;;;;;6151387;23;20023;-87
2022/02/05 13:44:02;;;;;;;3.85;0.30;;;7.60;99.90;;;;;;6126057;23;20450;-86
2022/02/05 13:46:28;;;;;;;8.05;0.40;;;7.70;99.90;;;;;;6126034;23;20010;-82
2022/02/05 13:49:11;;;;;;;5.15;0.73;;;7.60;99.90;;;;;;6151313;23;20047;-85
2022/02/05 13:51:36;;;;;;;5.00;0.35;;;7.40;99.90;;;;;;6128022;23;20062;-87
2022/02/05 13:54:02;;;;;;;4.55;0.40;;;7.70;99.90;;;;;;6127265;23;20509;-85
2022/02/05 13:56:33;;;;;;;5.57;0.40;;;8.00;99.90;;;;;;6151097;23;20063;-84
2022/02/05 13:58:59;;;;;;;4.38;0.40;;;7.90;99.90;;;;;;6152120;23;20033;-86
2022/02/05 14:01:33;;;;;;;6.55;0.38;;;7.70;99.90;;;;;;6127291;23;20013;-86
2022/02/05 14:04:23;;;;;;;4.22;0.40;;;7.70;99.90;;;;;;6127783;23;20071;-87
2022/02/05 14:06:54;;;;;;;5.40;0.50;;;7.70;99.90;;;;;;6104351;23;20013;-86
2022/02/05 14:09:29;;;;;;;2.38;0.30;;;7.60;99.90;;;;;;6126856;23;20010;-86
2022/02/05 14:11:56;;;;;;;3.05;0.40;;;7.60;99.90;;;;;;6127376;23;20017;-86
2022/02/05 14:14:30;;;;;;;5.10;0.40;;;7.70;99.90;;;;;;6150792;23;20018;-87
2022/02/05 14:16:57;;;;;;;2.72;0.40;;;7.50;99.90;;;;;;6152269;23;20013;-84
2022/02/05 14:19:25;;;;;;;3.08;0.32;;;7.40;99.90;;;;;;6127297;23;20013;-86
2022/02/05 14:21:52;;;;;;;4.95;0.50;;;7.30;99.90;;;;;;6126182;23;20027;-87
2022/02/05 14:24:24;;;;;;;4.03;0.50;;;7.30;99.90;;;;;;6126989;23;20006;-85
2022/02/05 14:27:04;;;;;;;6.05;0.60;;;7.20;99.90;;;;;;6152063;23;20096;-86
2022/02/05 14:32:23;;;;;;;6.90;1.25;;;7.20;99.90;;;;;;6151832;23;20006;-85
2022/02/05 14:35:07;;;;;;;6.40;0.47;;;7.20;99.90;;;;;;6126676;23;20016;-86
2022/02/05 14:42:43;;;;;;;3.67;0.60;;;7.40;99.90;;;;;;6151460;23;20021;-87
2022/02/05 14:45:09;;;;;;;5.28;0.63;;;7.40;99.90;;;;;;6151551;23;20010;-86
2022/02/05 14:47:34;;;;;;;5.07;0.95;;;7.40;99.90;;;;;;6102727;23;20009;-88
2022/02/05 14:50:02;;;;;;;5.65;0.50;;;7.50;99.90;;;;;;6151737;23;20397;-87
2022/02/05 14:52:28;;;;;;;6.50;0.60;;;7.50;99.90;;;;;;6150914;23;20073;-88
2022/02/05 14:54:57;;;;;;;5.72;0.65;;;7.60;99.90;;;;;;6152730;23;20018;-85
2022/02/05 14:57:22;;;;;;;5.38;0.63;;;7.80;99.90;;;;;;6127333;23;20075;-87
2022/02/05 14:59:48;;;;;;;5.78;0.60;;;7.70;99.90;;;;;;6127134;23;20001;-88
2022/02/05 15:02:14;;;;;;;4.32;0.50;;;7.60;99.90;;;;;;6127411;23;20041;-87
2022/02/05 15:04:40;;;;;;;2.45;0.38;;;7.50;99.90;;;;;;6103088;23;20016;-89
2022/02/05 15:07:07;;;;;;;4.93;0.70;;;7.50;99.90;;;;;;6126804;23;20013;-88
2022/02/05 15:09:33;;;;;;;7.07;0.85;;;7.40;99.90;;;;;;6126847;23;20014;-87
2022/02/05 15:11:58;;;;;;;4.35;0.60;;;7.40;99.90;;;;;;6127510;23;20006;-86
2022/02/05 15:14:24;;;;;;;7.10;0.70;;;7.30;99.90;;;;;;6126684;23;20288;-85
2022/02/05 15:16:50;;;;;;;6.50;1.38;;;7.30;99.90;;;;;;6127290;23;20014;-89
2022/02/05 15:19:15;;;;;;;4.57;0.40;;;7.20;99.90;;;;;;6153327;23;20016;-88
2022/02/05 15:21:41;;;;;;;3.00;0.50;;;7.20;99.90;;;;;;6102450;23;20013;-89
2022/02/05 15:24:09;;;;;;;3.50;0.57;;;7.20;99.90;;;;;;6102942;23;20010;-87
2022/02/05 15:26:36;;;;;;;4.00;0.40;;;7.20;99.90;;;;;;6127142;23;20469;-88
2022/02/05 15:29:04;;;;;;;3.67;0.50;;;7.20;99.90;;;;;;6104755;23;20012;-88
2022/02/05 15:31:30;;;;;;;3.55;0.30;;;7.20;99.90;;;;;;6128658;23;20020;-89
2022/02/05 15:33:58;;;;;;;4.40;0.30;;;7.20;99.90;;;;;;6104802;23;20009;-88
2022/02/05 15:36:34;;;;;;;2.92;0.75;;;7.10;99.90;;;;;;6128634;23;20067;-88
2022/02/05 15:44:29;;;;;;;4.68;0.30;;;7.20;99.90;;;;;;6155849;23;19997;-86
2022/02/05 15:46:55;;;;;;;4.07;0.50;;;7.20;99.90;;;;;;6106482;23;20029;-87
2022/02/05 15:49:20;;;;;;;6.82;0.60;;;7.10;99.90;;;;;;6106063;23;20006;-86
2022/02/05 15:51:46;;;;;;;2.45;0.40;;;7.10;99.90;;;;;;6104837;23;20005;-88
2022/02/05 15:54:13;;;;;;;8.05;0.85;;;7.10;99.90;;;;;;6116420;23;20010;-88
2022/02/05 15:59:10;;;;;;;4.18;0.65;;;7.00;99.90;;;;;;6153390;23;20017;-91
2022/02/05 16:01:35;;;;;;;2.90;0.40;;;7.00;99.90;;;;;;6153746;23;20022;-90
2022/02/05 16:04:01;;;;;;;6.38;0.50;;;7.00;99.90;;;;;;6128900;23;20059;-86
2022/02/05 16:06:27;;;;;;;2.97;0.60;;;7.00;99.90;;;;;;6153653;23;20009;-86
2022/02/05 16:08:52;;;;;;;4.88;0.68;;;6.90;99.90;;;;;;6129089;23;20342;-90
2022/02/05 16:11:19;;;;;;;4.50;0.47;;;6.80;99.90;;;;;;6155393;23;20033;-86
2022/02/05 16:13:45;;;;;;;1.77;0.32;;;6.80;99.90;;;;;;6128253;23;20006;-88
2022/02/05 16:16:11;;;;;;;5.88;0.50;;;6.80;99.90;;;;;;6129241;23;20069;-86
2022/02/05 16:18:37;;;;;;;4.43;0.50;;;6.80;99.90;;;;;;6154160;23;20009;-89
2022/02/05 16:21:03;;;;;;;4.55;0.60;;;6.80;99.90;;;;;;6153536;23;20013;-86
2022/02/05 16:23:29;;;;;;;3.13;0.60;;;6.80;99.90;;;;;;6153814;23;20056;-88
2022/02/05 16:25:54;;;;;;;4.80;0.60;;;6.80;99.90;;;;;;6155346;23;20016;-89
2022/02/05 16:28:20;;;;;;;5.03;0.70;;;6.80;99.90;;;;;;6154000;23;20005;-88
2022/02/05 16:30:47;;;;;;;3.42;0.60;;;6.80;99.90;;;;;;6153430;23;20013;-89
2022/02/05 16:33:17;;;;;;;4.18;0.70;;;6.80;99.90;;;;;;6154170;23;20005;-88
2022/02/05 16:35:49;;;;;;;6.68;0.63;;;6.80;99.90;;;;;;6153121;23;20009;-88